createdAt,value
2022-10-05T00:03:37.229Z,83.61
2022-10-05T00:08:39.177Z,84.29
2022-10-05T00:13:42.044Z,84.61
2022-10-05T00:18:50.640Z,84.77
2022-10-05T00:23:55.845Z,83.56
2022-10-05T00:28:57.733Z,83.75
2022-10-05T00:33:59.445Z,83.64
2022-10-05T00:39:02.082Z,84.21
2022-10-05T00:44:09.797Z,84.71
2022-10-05T00:49:46.312Z,85.09
2022-10-05T00:55:06.742Z,85.47
2022-10-05T01:00:13.904Z,85.33
2022-10-05T01:05:56.942Z,85.66
2022-10-05T01:11:20.828Z,85.50
2022-10-05T01:16:41.613Z,85.88
2022-10-05T01:21:54.264Z,85.94
2022-10-05T01:27:08.834Z,85.49
2022-10-05T01:32:23.771Z,85.69
2022-10-05T01:37:37.965Z,85.79
2022-10-05T01:43:04.100Z,87.45
2022-10-05T01:48:13.741Z,87.00
2022-10-05T01:53:45.817Z,87.03
2022-10-05T01:59:02.137Z,86.39
2022-10-05T02:04:29.576Z,86.34
2022-10-05T02:09:45.291Z,85.97
2022-10-05T02:14:55.547Z,86.20
2022-10-05T02:20:05.118Z,86.35
2022-10-05T02:25:14.551Z,86.20
2022-10-05T02:30:17.826Z,86.09
2022-10-05T02:35:22.771Z,85.74
2022-10-05T02:41:03.151Z,86.43
2022-10-05T02:46:19.281Z,86.56
2022-10-05T02:51:26.901Z,86.75
2022-10-05T02:56:37.254Z,87.00
2022-10-05T03:01:51.695Z,86.44
2022-10-05T03:07:18.647Z,86.67
2022-10-05T03:12:37.355Z,87.23
2022-10-05T03:18:05.873Z,86.92
2022-10-05T03:23:17.282Z,86.66
2022-10-05T03:28:50.736Z,86.81
2022-10-05T03:34:00.577Z,86.59
2022-10-05T03:39:20.354Z,86.42
2022-10-05T03:45:03.426Z,86.67
2022-10-05T03:50:20.124Z,86.73
2022-10-05T03:55:37.274Z,87.22
2022-10-05T04:00:43.864Z,86.99
2022-10-05T04:05:50.773Z,86.84
2022-10-05T04:10:57.104Z,87.01
2022-10-05T04:16:08.734Z,87.79
2022-10-05T04:21:32.852Z,87.93
2022-10-05T04:26:49.892Z,88.36
2022-10-05T04:32:05.583Z,87.04
2022-10-05T04:37:35.158Z,87.46
2022-10-05T04:42:52.616Z,87.14
2022-10-05T04:48:35.629Z,87.36
2022-10-05T04:53:54.145Z,87.22
2022-10-05T04:59:17.029Z,87.48
2022-10-05T05:05:03.538Z,87.81
2022-10-05T05:10:43.683Z,87.71
2022-10-05T05:16:44.495Z,88.29
2022-10-05T05:22:02.853Z,88.55
2022-10-05T05:27:43.232Z,87.96
2022-10-05T05:33:14.602Z,90.02
2022-10-05T05:38:16.765Z,90.74
2022-10-05T05:43:30.454Z,95.08
2022-10-05T05:48:38.931Z,94.91
2022-10-05T05:53:48.873Z,95.35
2022-10-05T05:58:57.818Z,95.28
2022-10-05T06:04:15.779Z,96.28
2022-10-05T06:09:41.774Z,97.81
2022-10-05T06:15:05.739Z,96.76
2022-10-05T06:20:20.441Z,96.62
2022-10-05T06:25:31.205Z,95.22
2022-10-05T06:31:02.057Z,95.29
2022-10-05T06:36:09.507Z,94.76
2022-10-05T06:41:14.436Z,94.24
2022-10-05T06:46:51.577Z,94.59
2022-10-05T06:52:12.977Z,93.77
2022-10-05T06:57:49.468Z,92.45
2022-10-05T07:03:10.409Z,91.57
2022-10-05T07:08:38.236Z,91.70
2022-10-05T07:13:58.320Z,91.72
2022-10-05T07:19:19.123Z,91.33
2022-10-05T07:24:33.841Z,90.93
2022-10-05T07:29:54.266Z,90.70
2022-10-05T07:35:01.730Z,89.14
2022-10-05T07:40:09.586Z,87.21
2022-10-05T07:45:52.300Z,87.45
2022-10-05T07:50:54.778Z,87.37
2022-10-05T07:56:03.228Z,86.12
2022-10-05T08:01:26.596Z,84.25
2022-10-05T08:06:38.398Z,83.77
2022-10-05T08:12:12.497Z,83.17
2022-10-05T08:17:39.901Z,83.14
2022-10-05T08:22:47.931Z,83.60
2022-10-05T08:28:05.119Z,82.18
2022-10-05T08:33:12.832Z,82.68
2022-10-05T08:38:17.198Z,83.23
2022-10-05T08:44:03.828Z,82.55
2022-10-05T08:49:11.698Z,82.92
2022-10-05T08:54:16.398Z,81.69
2022-10-05T08:59:52.849Z,81.32
2022-10-05T09:05:15.319Z,81.48
2022-10-05T09:10:34.172Z,80.72
2022-10-05T09:16:09.460Z,79.86
2022-10-05T09:21:29.801Z,79.18
2022-10-05T09:26:40.482Z,79.79
2022-10-05T09:32:06.656Z,78.11
2022-10-05T09:37:33.434Z,77.54
2022-10-05T09:42:54.035Z,75.36
2022-10-05T09:48:27.247Z,75.90
2022-10-05T09:53:40.711Z,75.37
2022-10-05T09:59:24.121Z,75.78
2022-10-05T10:05:01.723Z,75.49
2022-10-05T10:10:40.072Z,74.76
2022-10-05T10:16:09.243Z,73.33
2022-10-05T10:21:22.952Z,72.72
2022-10-05T10:26:48.590Z,74.41
2022-10-05T10:32:14.570Z,73.16
2022-10-05T10:37:39.412Z,72.04
2022-10-05T10:42:59.232Z,71.94
2022-10-05T10:48:11.253Z,71.34
2022-10-05T10:53:40.318Z,72.07
2022-10-05T10:59:03.991Z,71.81
2022-10-05T11:04:40.327Z,70.66
2022-10-05T11:10:12.762Z,70.54
2022-10-05T11:15:52.241Z,70.63
2022-10-05T11:21:03.100Z,70.73
2022-10-05T11:26:34.370Z,69.95
2022-10-05T11:32:06.286Z,69.85
2022-10-05T11:37:39.869Z,69.67
2022-10-05T11:42:58.730Z,70.17
2022-10-05T11:48:25.678Z,69.20
2022-10-05T11:53:46.471Z,69.26
2022-10-05T11:58:58.435Z,69.07
2022-10-05T12:04:15.452Z,69.58
2022-10-05T12:09:36.438Z,69.62
2022-10-05T12:15:01.689Z,69.17
2022-10-05T12:20:16.266Z,68.79
2022-10-05T12:25:21.680Z,69.57
2022-10-05T12:30:34.896Z,68.59
2022-10-05T12:35:50.998Z,69.29
2022-10-05T12:41:04.329Z,69.67
2022-10-05T12:46:26.709Z,69.13
2022-10-05T12:51:43.543Z,70.22
2022-10-05T12:57:06.769Z,69.34
2022-10-05T13:02:27.640Z,70.01
2022-10-05T13:07:34.152Z,69.20
2022-10-05T13:12:48.766Z,70.00
2022-10-05T13:18:02.472Z,69.79
2022-10-05T13:23:31.394Z,69.59
2022-10-05T13:29:00.553Z,70.13
2022-10-05T13:34:40.433Z,69.99
2022-10-05T13:39:48.343Z,69.66
2022-10-05T13:44:53.883Z,70.36
2022-10-05T13:50:23.620Z,70.49
2022-10-05T13:55:37.966Z,70.49
2022-10-05T14:00:54.185Z,70.26
2022-10-05T14:05:58.338Z,70.92
2022-10-05T14:11:00.483Z,71.35
2022-10-05T14:16:17.785Z,70.89
2022-10-05T14:21:24.934Z,71.47
2022-10-05T14:26:27.821Z,71.17
2022-10-05T14:31:35.407Z,71.02
2022-10-05T14:36:43.940Z,71.22
2022-10-05T14:41:48.922Z,71.45
2022-10-05T14:47:02.693Z,71.22
2022-10-05T14:52:51.686Z,72.05
2022-10-05T14:58:00.427Z,72.40
2022-10-05T15:03:18.744Z,72.37
2022-10-05T15:08:31.314Z,73.27
2022-10-05T15:13:40.130Z,72.82
2022-10-05T15:18:51.393Z,72.52
2022-10-05T15:24:14.385Z,72.80
2022-10-05T15:29:22.393Z,73.43
2022-10-05T15:34:40.667Z,73.49
2022-10-05T15:39:55.006Z,73.41
2022-10-05T15:45:20.766Z,73.59
2022-10-05T15:50:26.475Z,73.18
2022-10-05T15:55:43.586Z,73.60
2022-10-05T16:00:58.779Z,73.55
2022-10-05T16:06:24.914Z,73.84
2022-10-05T16:11:32.340Z,74.09
2022-10-05T16:16:42.103Z,74.12
2022-10-05T16:21:58.113Z,74.42
2022-10-05T16:27:07.279Z,74.67
2022-10-05T16:32:30.833Z,74.42
2022-10-05T16:37:37.027Z,74.81
2022-10-05T16:42:52.730Z,74.87
2022-10-05T16:48:00.656Z,75.11
2022-10-05T16:53:12.560Z,74.92
2022-10-05T16:58:31.010Z,75.23
2022-10-05T17:03:52.028Z,75.09
2022-10-05T17:09:18.493Z,74.94
2022-10-05T17:14:35.859Z,75.07
2022-10-05T17:19:48.965Z,75.53
2022-10-05T17:25:09.313Z,75.46
2022-10-05T17:30:31.644Z,76.14
2022-10-05T17:36:00.943Z,76.22
2022-10-05T17:41:19.596Z,76.47
2022-10-05T17:46:38.742Z,76.25
2022-10-05T17:52:16.578Z,76.68
2022-10-05T17:57:24.402Z,76.25
2022-10-05T18:02:36.163Z,76.77
2022-10-05T18:07:48.142Z,76.44
2022-10-05T18:13:20.120Z,76.54
2022-10-05T18:18:40.805Z,76.62
2022-10-05T18:23:59.986Z,76.61
2022-10-05T18:29:43.431Z,76.33
2022-10-05T18:35:02.066Z,76.38
2022-10-05T18:40:13.305Z,76.42
2022-10-05T18:45:43.015Z,76.46
2022-10-05T18:51:01.475Z,76.45
2022-10-05T18:56:30.113Z,76.66
2022-10-05T19:01:58.779Z,76.55
2022-10-05T19:07:07.802Z,76.77
2022-10-05T19:12:31.405Z,77.06
2022-10-05T19:17:55.064Z,77.29
2022-10-05T19:23:57.180Z,77.29
2022-10-05T19:29:16.490Z,77.43
2022-10-05T19:34:45.994Z,77.96
2022-10-05T19:39:58.191Z,77.77
2022-10-05T19:45:18.770Z,78.13
2022-10-05T19:50:29.887Z,78.49
2022-10-05T19:55:35.438Z,78.19
2022-10-05T20:00:37.878Z,78.12
2022-10-05T20:05:40.775Z,78.06
2022-10-05T20:10:42.754Z,78.27
2022-10-05T20:16:26.959Z,78.57
2022-10-05T20:21:43.294Z,78.80
2022-10-05T20:27:06.685Z,79.38
2022-10-05T20:32:18.102Z,79.48
2022-10-05T20:37:20.122Z,79.75
2022-10-05T20:42:23.862Z,79.88
2022-10-05T20:47:25.825Z,80.27
2022-10-05T20:52:27.411Z,79.96
2022-10-05T20:57:28.972Z,80.45
2022-10-05T21:02:31.062Z,80.37
2022-10-05T21:07:34.265Z,80.22
2022-10-05T21:12:36.129Z,80.55
2022-10-05T21:17:39.129Z,80.58
2022-10-05T21:22:41.125Z,81.06
2022-10-05T21:27:42.914Z,80.82
2022-10-05T21:32:44.990Z,81.42
2022-10-05T21:37:46.697Z,81.56
2022-10-05T21:42:48.399Z,81.89
2022-10-05T21:47:50.392Z,82.00
2022-10-05T21:52:53.539Z,81.96
2022-10-05T21:57:58.559Z,82.14
2022-10-05T22:03:00.212Z,82.37
2022-10-05T22:08:02.799Z,82.80
2022-10-05T22:13:04.637Z,82.72
2022-10-05T22:18:06.766Z,83.25
2022-10-05T22:23:08.639Z,83.65
2022-10-05T22:28:13.243Z,83.88
2022-10-05T22:33:14.872Z,83.94
2022-10-05T22:38:16.670Z,84.15
2022-10-05T22:43:18.805Z,84.11
2022-10-05T22:48:20.661Z,83.78
2022-10-05T22:53:22.791Z,83.49
2022-10-05T22:58:25.053Z,83.51
2022-10-05T23:03:27.127Z,83.71
2022-10-05T23:08:32.841Z,83.41
2022-10-05T23:13:34.549Z,83.81
2022-10-05T23:18:37.149Z,83.45
2022-10-05T23:23:41.013Z,83.56
2022-10-05T23:28:47.169Z,83.37
2022-10-05T23:33:49.824Z,83.68
2022-10-05T23:38:52.120Z,83.46
2022-10-05T23:43:55.432Z,83.17
2022-10-05T23:48:57.119Z,83.01
2022-10-05T23:53:59.806Z,83.73
2022-10-05T23:59:01.715Z,84.50
